createdAt,value
2019-02-09T00:01:05.512Z,5.80
2019-02-09T00:03:34.673Z,6.10
2019-02-09T00:06:03.738Z,6.17
2019-02-09T00:08:32.863Z,5.50
2019-02-09T00:11:01.958Z,6.65
2019-02-09T00:13:31.162Z,5.85
2019-02-09T00:16:00.210Z,7.08
2019-02-09T00:18:29.324Z,9.50
2019-02-09T00:20:58.374Z,8.10
2019-02-09T00:23:27.429Z,7.87
2019-02-09T00:25:56.545Z,8.38
2019-02-09T00:28:25.571Z,9.35
2019-02-09T00:30:54.674Z,12.10
2019-02-09T00:33:23.740Z,12.30
2019-02-09T00:35:52.869Z,11.30
2019-02-09T00:38:21.942Z,15.35
2019-02-09T00:40:51.125Z,19.60
2019-02-09T00:43:20.213Z,15.35
2019-02-09T00:45:49.299Z,16.23
2019-02-09T00:48:18.359Z,16.75
2019-02-09T00:50:47.486Z,13.98
2019-02-09T00:53:16.543Z,8.38
2019-02-09T00:55:45.721Z,7.83
2019-02-09T00:58:14.788Z,7.60
2019-02-09T01:00:43.878Z,7.60
2019-02-09T01:03:13.435Z,7.25
2019-02-09T01:05:44.501Z,7.62
2019-02-09T01:08:13.601Z,8.90
2019-02-09T01:10:42.718Z,10.10
2019-02-09T01:13:11.798Z,13.98
2019-02-09T01:15:40.933Z,11.88
2019-02-09T01:18:10.022Z,12.73
2019-02-09T01:20:39.109Z,11.33
2019-02-09T01:23:08.142Z,7.80
2019-02-09T01:25:37.209Z,8.48
2019-02-09T01:28:06.267Z,11.03
2019-02-09T01:30:35.391Z,12.13
2019-02-09T01:33:04.481Z,16.62
2019-02-09T01:35:33.656Z,16.95
2019-02-09T01:38:02.707Z,14.40
2019-02-09T01:40:31.844Z,9.08
2019-02-09T01:43:00.919Z,7.45
2019-02-09T01:45:30.974Z,10.32
2019-02-09T01:48:00.124Z,12.63
2019-02-09T01:50:30.410Z,12.58
2019-02-09T01:52:59.659Z,11.50
2019-02-09T01:55:29.630Z,11.95
2019-02-09T01:57:59.995Z,13.03
2019-02-09T02:00:31.195Z,11.68
2019-02-09T02:03:00.345Z,13.50
2019-02-09T02:05:29.615Z,15.80
2019-02-09T02:07:58.669Z,20.10
2019-02-09T02:10:32.419Z,18.75
2019-02-09T02:13:01.689Z,6.58
2019-02-09T02:15:30.866Z,7.10
2019-02-09T02:17:59.952Z,5.50
2019-02-09T02:20:29.892Z,3.83
2019-02-09T02:22:59.020Z,3.42
2019-02-09T02:25:28.072Z,2.27
2019-02-09T02:27:57.131Z,1.90
2019-02-09T02:30:31.410Z,2.37
2019-02-09T02:33:00.462Z,2.00
2019-02-09T02:35:29.530Z,2.20
2019-02-09T02:37:58.595Z,2.02
2019-02-09T02:40:27.694Z,1.77
2019-02-09T02:42:56.739Z,2.00
2019-02-09T02:45:25.901Z,2.13
2019-02-09T02:47:54.993Z,4.00
2019-02-09T02:50:24.049Z,4.80
2019-02-09T02:52:53.081Z,3.00
2019-02-09T02:55:23.936Z,1.98
2019-02-09T02:57:53.496Z,1.90
2019-02-09T03:00:31.728Z,1.57
2019-02-09T03:02:55.183Z,1.55
2019-02-09T03:05:24.633Z,1.30
2019-02-09T03:07:53.762Z,1.50
2019-02-09T03:10:22.882Z,1.43
2019-02-09T03:12:51.924Z,1.45
2019-02-09T03:15:23.050Z,1.60
2019-02-09T03:17:52.190Z,1.50
2019-02-09T03:20:21.335Z,1.70
2019-02-09T03:22:50.483Z,1.90
2019-02-09T03:25:21.917Z,1.80
2019-02-09T03:27:50.928Z,1.85
2019-02-09T03:30:20.084Z,1.80
2019-02-09T03:32:49.137Z,1.75
2019-02-09T03:35:18.186Z,1.62
2019-02-09T03:37:47.251Z,1.75
2019-02-09T03:40:17.781Z,2.10
2019-02-09T03:42:46.900Z,1.85
2019-02-09T03:45:27.067Z,1.90
2019-02-09T03:47:56.173Z,1.80
2019-02-09T03:50:25.952Z,2.10
2019-02-09T03:52:55.138Z,1.80
2019-02-09T03:55:24.245Z,1.70
2019-02-09T03:57:53.335Z,2.30
2019-02-09T04:00:23.927Z,1.90
2019-02-09T04:02:53.046Z,1.82
2019-02-09T04:05:22.262Z,2.00
2019-02-09T04:07:51.350Z,1.70
2019-02-09T04:10:21.605Z,1.70
2019-02-09T04:12:50.615Z,1.98
2019-02-09T04:15:21.001Z,4.60
2019-02-09T04:17:50.079Z,2.00
2019-02-09T04:20:19.916Z,2.00
2019-02-09T04:22:48.995Z,2.00
2019-02-09T04:25:18.521Z,1.87
2019-02-09T04:27:47.639Z,2.00
2019-02-09T04:30:24.807Z,1.97
2019-02-09T04:32:54.047Z,1.95
2019-02-09T04:35:23.083Z,1.70
2019-02-09T04:37:52.221Z,1.62
2019-02-09T04:40:23.251Z,1.33
2019-02-09T04:42:52.318Z,1.50
2019-02-09T04:45:21.373Z,1.30
2019-02-09T04:47:50.412Z,1.42
2019-02-09T04:50:19.609Z,1.30
2019-02-09T04:52:48.695Z,1.30
2019-02-09T04:55:19.807Z,1.50
2019-02-09T04:57:48.834Z,1.32
2019-02-09T05:00:22.547Z,1.87
2019-02-09T05:02:51.593Z,1.70
2019-02-09T05:05:20.732Z,2.03
2019-02-09T05:07:49.762Z,2.37
2019-02-09T05:10:19.173Z,1.93
2019-02-09T05:12:48.212Z,2.17
2019-02-09T05:15:17.567Z,2.20
2019-02-09T05:17:46.589Z,2.02
2019-02-09T05:20:20.548Z,2.20
2019-02-09T05:22:49.567Z,2.33
2019-02-09T05:25:18.622Z,2.33
2019-02-09T05:27:47.671Z,2.02
2019-02-09T05:30:18.795Z,2.30
2019-02-09T05:32:47.823Z,2.20
2019-02-09T05:35:16.905Z,2.37
2019-02-09T05:37:45.934Z,1.90
2019-02-09T05:40:17.057Z,2.20
2019-02-09T05:42:46.092Z,2.25
2019-02-09T05:45:17.795Z,2.17
2019-02-09T05:47:46.849Z,2.12
2019-02-09T05:50:17.132Z,2.20
2019-02-09T05:52:46.314Z,2.15
2019-02-09T05:55:15.386Z,2.40
2019-02-09T05:57:44.442Z,2.52
2019-02-09T06:00:25.479Z,2.17
2019-02-09T06:02:54.526Z,2.33
2019-02-09T06:05:23.587Z,2.30
2019-02-09T06:07:52.702Z,2.25
2019-02-09T06:10:21.784Z,2.20
2019-02-09T06:12:50.974Z,2.55
2019-02-09T06:15:20.071Z,2.40
2019-02-09T06:17:49.108Z,2.20
2019-02-09T06:20:20.601Z,2.10
2019-02-09T06:22:49.812Z,2.20
2019-02-09T06:25:18.857Z,2.00
2019-02-09T06:27:47.921Z,2.20
2019-02-09T06:30:24.567Z,2.27
2019-02-09T06:32:53.683Z,2.22
2019-02-09T06:35:22.692Z,2.40
2019-02-09T06:37:51.779Z,2.20
2019-02-09T06:40:20.844Z,2.40
2019-02-09T06:42:49.909Z,2.37
2019-02-09T06:45:20.472Z,2.50
2019-02-09T06:47:49.519Z,2.25
2019-02-09T06:50:24.301Z,2.30
2019-02-09T06:52:53.353Z,2.47
2019-02-09T06:55:22.895Z,2.50
2019-02-09T06:57:51.991Z,2.00
2019-02-09T07:00:21.099Z,2.30
2019-02-09T07:02:50.222Z,2.50
2019-02-09T07:05:19.564Z,2.17
2019-02-09T07:07:48.644Z,2.17
2019-02-09T07:10:19.990Z,1.90
2019-02-09T07:12:49.067Z,1.70
2019-02-09T07:15:23.835Z,1.35
2019-02-09T07:17:52.966Z,1.27
2019-02-09T07:20:22.037Z,1.37
2019-02-09T07:22:51.097Z,1.57
2019-02-09T07:25:20.238Z,1.62
2019-02-09T07:27:49.290Z,1.60
2019-02-09T07:30:20.826Z,2.10
2019-02-09T07:32:49.890Z,1.80
2019-02-09T07:35:18.981Z,2.10
2019-02-09T07:37:48.009Z,2.22
2019-02-09T07:40:17.903Z,2.10
2019-02-09T07:42:46.944Z,2.27
2019-02-09T07:45:17.695Z,2.27
2019-02-09T07:47:46.723Z,2.08
2019-02-09T07:50:17.002Z,2.50
2019-02-09T07:52:46.124Z,2.37
2019-02-09T07:55:15.533Z,2.50
2019-02-09T07:57:44.574Z,2.45
2019-02-09T08:00:22.390Z,2.47
2019-02-09T08:02:51.426Z,2.58
2019-02-09T08:05:20.667Z,2.60
2019-02-09T08:07:49.735Z,2.80
2019-02-09T08:10:20.795Z,2.20
2019-02-09T08:12:49.875Z,2.50
2019-02-09T08:15:21.158Z,2.67
2019-02-09T08:17:50.234Z,2.50
2019-02-09T08:20:20.315Z,2.80
2019-02-09T08:22:49.444Z,2.50
2019-02-09T08:25:21.315Z,2.77
2019-02-09T08:27:50.447Z,2.33
2019-02-09T08:30:24.711Z,2.40
2019-02-09T08:32:53.787Z,2.50
2019-02-09T08:35:22.874Z,2.53
2019-02-09T08:37:51.960Z,2.87
2019-02-09T08:40:21.052Z,3.03
2019-02-09T08:42:50.217Z,2.72
2019-02-09T08:45:19.588Z,2.77
2019-02-09T08:47:48.678Z,2.60
2019-02-09T08:50:23.560Z,2.27
2019-02-09T08:52:52.673Z,2.40
2019-02-09T08:55:21.864Z,2.47
2019-02-09T08:57:50.920Z,2.50
2019-02-09T09:00:23.965Z,2.87
2019-02-09T09:02:53.074Z,3.12
2019-02-09T09:05:22.169Z,2.98
2019-02-09T09:07:51.238Z,2.60
2019-02-09T09:10:21.432Z,2.57
2019-02-09T09:12:50.498Z,2.83
2019-02-09T09:15:40.120Z,2.60
2019-02-09T09:18:09.184Z,2.30
2019-02-09T09:20:40.293Z,3.10
2019-02-09T09:23:09.356Z,3.00
2019-02-09T09:25:38.491Z,2.83
2019-02-09T09:28:07.605Z,3.10
2019-02-09T09:30:36.710Z,2.60
2019-02-09T09:33:05.881Z,2.90
2019-02-09T09:35:34.928Z,3.00
2019-02-09T09:38:04.020Z,2.95
2019-02-09T09:40:35.628Z,3.20
2019-02-09T09:43:04.794Z,2.95
2019-02-09T09:45:35.199Z,2.95
2019-02-09T09:48:04.403Z,2.92
2019-02-09T09:50:33.507Z,2.95
2019-02-09T09:53:02.634Z,2.80
2019-02-09T09:55:31.758Z,2.62
2019-02-09T09:58:00.857Z,3.20
2019-02-09T10:00:29.944Z,2.87
2019-02-09T10:02:59.052Z,2.92
2019-02-09T10:05:28.150Z,3.15
2019-02-09T10:07:57.252Z,3.40
2019-02-09T10:10:26.354Z,2.83
2019-02-09T10:12:55.390Z,3.37
2019-02-09T10:15:25.026Z,2.97
2019-02-09T10:17:54.083Z,3.10
2019-02-09T10:20:24.357Z,3.20
2019-02-09T10:22:53.371Z,4.03
2019-02-09T10:25:22.461Z,3.20
2019-02-09T10:27:51.868Z,3.05
2019-02-09T10:30:22.982Z,3.13
2019-02-09T10:32:52.071Z,2.90
2019-02-09T10:35:21.476Z,3.25
2019-02-09T10:37:50.580Z,2.90
2019-02-09T10:40:24.591Z,2.97
2019-02-09T10:42:53.887Z,2.95
2019-02-09T10:45:24.493Z,2.60
2019-02-09T10:47:53.580Z,2.80
2019-02-09T10:50:25.799Z,2.73
2019-02-09T10:52:55.345Z,2.92
2019-02-09T10:55:24.485Z,2.67
2019-02-09T10:57:53.570Z,3.22
2019-02-09T11:00:34.912Z,3.00
2019-02-09T11:03:04.019Z,3.22
2019-02-09T11:05:33.114Z,2.55
2019-02-09T11:08:02.208Z,3.05
2019-02-09T11:10:31.306Z,3.47
2019-02-09T11:13:00.429Z,2.98
2019-02-09T11:15:29.592Z,2.47
2019-02-09T11:17:58.746Z,3.87
2019-02-09T11:20:27.860Z,3.83
2019-02-09T11:22:56.974Z,2.92
2019-02-09T11:25:26.038Z,3.50
2019-02-09T11:27:55.177Z,3.25
2019-02-09T11:30:25.070Z,2.97
2019-02-09T11:33:00.750Z,3.10
2019-02-09T11:35:24.934Z,3.03
2019-02-09T11:37:53.994Z,3.15
2019-02-09T11:40:23.070Z,3.30
2019-02-09T11:42:52.199Z,2.87
2019-02-09T11:45:23.325Z,2.80
2019-02-09T11:47:52.413Z,2.70
2019-02-09T11:50:21.525Z,3.47
2019-02-09T11:52:50.733Z,2.95
2019-02-09T11:55:19.854Z,3.33
2019-02-09T11:57:49.124Z,2.83
2019-02-09T12:00:23.159Z,3.30
2019-02-09T12:02:52.249Z,9.10
2019-02-09T12:05:21.378Z,3.20
2019-02-09T12:07:50.470Z,3.45
2019-02-09T12:10:20.099Z,3.90
2019-02-09T12:12:49.183Z,3.22
2019-02-09T12:15:24.248Z,2.62
2019-02-09T12:17:53.388Z,2.87
2019-02-09T12:20:22.635Z,2.80
2019-02-09T12:22:51.806Z,2.80
2019-02-09T12:25:23.117Z,2.87
2019-02-09T12:27:52.250Z,3.02
2019-02-09T12:30:25.816Z,2.67
2019-02-09T12:32:54.923Z,2.70
2019-02-09T12:35:24.144Z,2.93
2019-02-09T12:37:53.267Z,2.58
2019-02-09T12:40:27.187Z,2.77
2019-02-09T12:42:56.316Z,3.35
2019-02-09T12:45:25.510Z,2.70
2019-02-09T12:47:54.676Z,3.98
2019-02-09T12:50:24.192Z,2.57
2019-02-09T12:52:53.340Z,2.85
2019-02-09T12:55:22.551Z,2.70
2019-02-09T12:57:51.683Z,3.15
2019-02-09T13:00:34.050Z,3.37
2019-02-09T13:03:08.672Z,3.10
2019-02-09T13:05:37.815Z,3.70
2019-02-09T13:08:06.909Z,5.40
2019-02-09T13:10:36.019Z,5.72
2019-02-09T13:13:05.113Z,3.42
2019-02-09T13:15:34.204Z,3.22
2019-02-09T13:18:03.389Z,3.83
2019-02-09T13:20:32.497Z,3.72
2019-02-09T13:23:01.576Z,5.95
2019-02-09T13:25:30.752Z,4.22
2019-02-09T13:28:00.207Z,4.95
2019-02-09T13:30:31.029Z,4.62
2019-02-09T13:33:00.218Z,4.20
2019-02-09T13:35:29.337Z,4.00
2019-02-09T13:37:58.593Z,3.47
2019-02-09T13:40:27.912Z,3.60
2019-02-09T13:42:57.217Z,3.20
2019-02-09T13:45:34.324Z,3.08
2019-02-09T13:48:03.468Z,3.25
2019-02-09T13:50:33.108Z,3.30
2019-02-09T13:53:02.254Z,6.33
2019-02-09T13:55:31.343Z,5.95
2019-02-09T13:58:00.464Z,5.33
2019-02-09T14:00:29.600Z,3.98
2019-02-09T14:02:58.745Z,4.45
2019-02-09T14:05:27.947Z,6.25
2019-02-09T14:07:57.062Z,2.65
2019-02-09T14:10:26.237Z,2.85
2019-02-09T14:12:55.356Z,2.80
2019-02-09T14:15:29.036Z,3.37
2019-02-09T14:17:59.400Z,5.58
2019-02-09T14:20:28.519Z,4.75
2019-02-09T14:22:57.569Z,4.10
2019-02-09T14:25:26.708Z,2.72
2019-02-09T14:27:58.597Z,4.95
2019-02-09T14:30:28.607Z,1.70
2019-02-09T14:32:57.692Z,1.72
2019-02-09T14:35:26.825Z,1.72
2019-02-09T14:37:55.898Z,1.90
2019-02-09T14:40:26.879Z,2.00
2019-02-09T14:42:56.095Z,2.60
2019-02-09T14:45:27.606Z,2.02
2019-02-09T14:47:56.822Z,1.90
2019-02-09T14:50:25.970Z,1.97
2019-02-09T14:52:55.047Z,1.92
2019-02-09T14:55:29.313Z,2.07
2019-02-09T14:57:58.422Z,1.60
2019-02-09T15:00:29.977Z,1.67
2019-02-09T15:02:59.123Z,1.90
2019-02-09T15:05:28.245Z,2.08
2019-02-09T15:07:57.325Z,2.62
2019-02-09T15:10:26.444Z,4.50
2019-02-09T15:12:55.562Z,7.45
2019-02-09T15:15:30.046Z,3.33
2019-02-09T15:17:59.172Z,3.72
2019-02-09T15:20:31.415Z,3.20
2019-02-09T15:23:00.548Z,7.17
2019-02-09T15:25:29.636Z,8.85
2019-02-09T15:27:58.845Z,8.43
2019-02-09T15:30:28.406Z,6.12
2019-02-09T15:32:57.557Z,4.95
2019-02-09T15:35:26.655Z,3.60
2019-02-09T15:37:55.763Z,3.12
2019-02-09T15:40:24.956Z,3.13
2019-02-09T15:42:54.073Z,3.10
2019-02-09T15:45:23.192Z,3.60
2019-02-09T15:47:52.405Z,3.70
2019-02-09T15:50:21.480Z,3.23
2019-02-09T15:52:50.616Z,3.08
2019-02-09T15:55:19.819Z,2.90
2019-02-09T15:57:48.984Z,2.70
2019-02-09T16:00:20.044Z,3.00
2019-02-09T16:02:49.235Z,3.30
2019-02-09T16:05:19.201Z,2.83
2019-02-09T16:07:48.343Z,4.42
2019-02-09T16:10:18.220Z,15.23
2019-02-09T16:12:47.470Z,13.45
2019-02-09T16:15:21.483Z,15.33
2019-02-09T16:17:50.608Z,8.63
2019-02-09T16:20:20.904Z,4.03
2019-02-09T16:22:50.036Z,3.50
2019-02-09T16:25:19.068Z,3.77
2019-02-09T16:27:48.174Z,3.15
2019-02-09T16:30:19.111Z,3.05
2019-02-09T16:32:48.248Z,4.15
2019-02-09T16:35:18.566Z,3.70
2019-02-09T16:37:47.646Z,3.52
2019-02-09T16:40:24.652Z,3.57
2019-02-09T16:42:53.756Z,4.78
2019-02-09T16:45:28.021Z,8.23
2019-02-09T16:47:57.071Z,5.95
2019-02-09T16:50:26.156Z,5.17
2019-02-09T16:52:55.262Z,3.37
2019-02-09T16:55:24.418Z,2.58
2019-02-09T16:57:53.510Z,4.60
2019-02-09T17:00:34.102Z,4.13
2019-02-09T17:03:03.245Z,4.90
2019-02-09T17:05:32.334Z,4.12
2019-02-09T17:08:01.474Z,3.35
2019-02-09T17:10:30.640Z,3.02
2019-02-09T17:12:59.741Z,2.87
2019-02-09T17:15:28.872Z,3.75
2019-02-09T17:17:57.976Z,2.92
2019-02-09T17:20:27.109Z,3.58
2019-02-09T17:22:56.164Z,2.80
2019-02-09T17:25:25.296Z,2.92
2019-02-09T17:27:54.451Z,3.10
2019-02-09T17:30:25.388Z,2.63
2019-02-09T17:32:54.451Z,2.33
2019-02-09T17:35:23.568Z,3.90
2019-02-09T17:37:52.706Z,3.55
2019-02-09T17:40:33.263Z,5.20
2019-02-09T17:43:02.405Z,8.33
2019-02-09T17:45:34.420Z,3.83
2019-02-09T17:48:03.582Z,2.65
2019-02-09T17:50:32.665Z,2.55
2019-02-09T17:53:01.850Z,2.37
2019-02-09T17:55:30.988Z,5.67
2019-02-09T17:58:00.124Z,8.75
2019-02-09T18:00:35.143Z,9.83
2019-02-09T18:03:04.303Z,11.70
2019-02-09T18:05:34.718Z,17.23
2019-02-09T18:08:03.894Z,7.92
2019-02-09T18:10:32.966Z,4.08
2019-02-09T18:13:02.066Z,7.60
2019-02-09T18:15:31.158Z,5.60
2019-02-09T18:18:00.301Z,3.90
2019-02-09T18:20:29.397Z,2.60
2019-02-09T18:22:58.496Z,7.47
2019-02-09T18:25:27.605Z,9.93
2019-02-09T18:27:56.729Z,15.80
2019-02-09T18:30:25.885Z,18.87
2019-02-09T18:32:54.940Z,20.35
2019-02-09T18:35:24.080Z,7.20
2019-02-09T18:37:53.162Z,5.40
2019-02-09T18:40:22.523Z,4.08
2019-02-09T18:42:51.619Z,3.00
2019-02-09T18:45:23.156Z,4.53
2019-02-09T18:47:52.229Z,5.03
2019-02-09T18:50:23.645Z,3.67
2019-02-09T18:52:52.686Z,9.05
2019-02-09T18:55:23.015Z,15.00
2019-02-09T18:57:52.127Z,6.90
2019-02-09T19:00:26.308Z,7.65
2019-02-09T19:02:55.362Z,6.72
2019-02-09T19:05:24.462Z,21.23
2019-02-09T19:07:53.598Z,11.95
2019-02-09T19:10:24.399Z,13.20
2019-02-09T19:12:53.465Z,13.98
2019-02-09T19:15:22.780Z,6.93
2019-02-09T19:17:51.836Z,5.58
2019-02-09T19:20:44.459Z,4.77
2019-02-09T19:23:13.575Z,3.35
2019-02-09T19:25:42.706Z,3.42
2019-02-09T19:28:11.840Z,3.42
2019-02-09T19:30:41.042Z,3.27
2019-02-09T19:33:10.093Z,3.12
2019-02-09T19:35:39.204Z,6.42
2019-02-09T19:38:08.264Z,7.37
2019-02-09T19:40:37.385Z,3.98
2019-02-09T19:43:06.495Z,2.92
2019-02-09T19:45:35.647Z,3.22
2019-02-09T19:48:04.863Z,3.08
2019-02-09T19:50:33.990Z,3.02
2019-02-09T19:53:03.201Z,3.25
2019-02-09T19:55:32.274Z,2.72
2019-02-09T19:58:01.437Z,3.00
2019-02-09T20:00:32.822Z,2.87
2019-02-09T20:03:01.970Z,3.20
2019-02-09T20:05:31.052Z,2.95
2019-02-09T20:08:00.135Z,3.65
2019-02-09T20:10:32.000Z,3.40
2019-02-09T20:13:01.067Z,2.80
2019-02-09T20:15:30.130Z,4.00
2019-02-09T20:17:59.279Z,3.20
2019-02-09T20:20:28.442Z,3.45
2019-02-09T20:22:57.584Z,3.25
2019-02-09T20:25:26.724Z,3.30
2019-02-09T20:27:56.099Z,3.92
2019-02-09T20:30:27.022Z,4.10
2019-02-09T20:32:56.126Z,3.90
2019-02-09T20:35:27.836Z,4.17
2019-02-09T20:37:56.138Z,4.33
2019-02-09T20:40:37.006Z,4.37
2019-02-09T20:43:08.408Z,4.00
2019-02-09T20:45:37.500Z,3.98
2019-02-09T20:48:06.985Z,3.85
2019-02-09T20:50:36.135Z,3.62
2019-02-09T20:53:05.644Z,3.72
2019-02-09T20:55:34.755Z,4.75
2019-02-09T20:58:03.892Z,4.92
2019-02-09T21:00:33.036Z,6.30
2019-02-09T21:03:02.106Z,5.80
2019-02-09T21:05:36.678Z,6.53
2019-02-09T21:08:02.140Z,6.55
2019-02-09T21:10:31.913Z,7.53
2019-02-09T21:13:01.009Z,6.12
2019-02-09T21:15:30.168Z,6.58
2019-02-09T21:17:59.302Z,9.30
2019-02-09T21:20:28.465Z,8.65
2019-02-09T21:22:57.572Z,9.45
2019-02-09T21:25:31.420Z,9.10
2019-02-09T21:28:00.476Z,11.55
2019-02-09T21:30:29.682Z,12.63
2019-02-09T21:32:58.998Z,10.20
2019-02-09T21:35:28.475Z,12.45
2019-02-09T21:37:57.578Z,12.53
2019-02-09T21:40:27.837Z,12.37
2019-02-09T21:42:56.898Z,10.72
2019-02-09T21:45:26.031Z,8.33
2019-02-09T21:47:55.212Z,9.20
2019-02-09T21:50:26.897Z,7.40
2019-02-09T21:52:56.011Z,6.17
2019-02-09T21:55:25.106Z,6.73
2019-02-09T21:57:54.226Z,6.10
2019-02-09T22:00:43.110Z,7.27
2019-02-09T22:03:13.122Z,6.58
2019-02-09T22:05:42.367Z,5.42
2019-02-09T22:08:19.394Z,6.30
2019-02-09T22:10:44.408Z,6.80
2019-02-09T22:13:13.536Z,6.30
2019-02-09T22:15:42.651Z,7.03
2019-02-09T22:18:11.841Z,7.10
2019-02-09T22:20:40.977Z,5.80
2019-02-09T22:23:10.122Z,6.95
2019-02-09T22:25:39.191Z,6.22
2019-02-09T22:28:08.362Z,7.40
2019-02-09T22:30:37.536Z,8.08
2019-02-09T22:33:06.767Z,7.75
2019-02-09T22:35:35.818Z,6.65
2019-02-09T22:38:05.027Z,8.48
2019-02-09T22:40:35.258Z,9.13
2019-02-09T22:43:04.352Z,8.08
2019-02-09T22:45:33.433Z,8.58
2019-02-09T22:48:02.643Z,8.08
2019-02-09T22:50:37.189Z,7.60
2019-02-09T22:53:06.300Z,9.30
2019-02-09T22:55:35.389Z,9.65
2019-02-09T22:58:05.143Z,9.65
2019-02-09T23:00:57.116Z,9.45
2019-02-09T23:03:45.062Z,9.88
2019-02-09T23:06:37.041Z,9.95
2019-02-09T23:09:08.801Z,11.25
2019-02-09T23:11:37.946Z,10.10
2019-02-09T23:14:07.033Z,8.00
2019-02-09T23:16:36.149Z,7.45
2019-02-09T23:19:05.631Z,9.55
2019-02-09T23:21:34.702Z,8.60
2019-02-09T23:24:03.843Z,8.58
2019-02-09T23:26:32.895Z,7.92
2019-02-09T23:29:02.064Z,10.20
2019-02-09T23:31:31.147Z,10.58
2019-02-09T23:34:00.355Z,8.98
2019-02-09T23:36:29.523Z,8.35
2019-02-09T23:38:58.664Z,11.20
2019-02-09T23:41:27.732Z,9.18
2019-02-09T23:43:56.839Z,12.82
2019-02-09T23:46:25.881Z,14.80
2019-02-09T23:48:55.065Z,13.00
2019-02-09T23:51:24.240Z,13.15
2019-02-09T23:53:53.392Z,13.03
2019-02-09T23:56:22.601Z,8.88
2019-02-09T23:58:51.662Z,10.78
